createdAt,value
2023-05-12T00:01:29.720Z,4.50
2023-05-12T00:06:33.336Z,4.50
2023-05-12T00:11:38.544Z,4.70
2023-05-12T00:16:42.355Z,4.70
2023-05-12T00:21:46.464Z,4.30
2023-05-12T00:26:50.093Z,3.80
2023-05-12T00:31:53.864Z,4.20
2023-05-12T00:36:57.749Z,4.50
2023-05-12T00:42:04.837Z,4.00
2023-05-12T00:47:09.658Z,4.00
2023-05-12T00:52:13.500Z,4.00
2023-05-12T00:57:19.694Z,3.80
2023-05-12T01:02:23.547Z,4.40
2023-05-12T01:07:28.458Z,4.10
2023-05-12T01:12:33.982Z,4.10
2023-05-12T01:17:43.702Z,4.40
2023-05-12T01:22:48.822Z,4.70
2023-05-12T01:27:53.399Z,4.00
2023-05-12T01:32:58.940Z,4.80
2023-05-12T01:38:03.541Z,4.20
2023-05-12T01:43:13.043Z,4.30
2023-05-12T01:48:16.709Z,4.30
2023-05-12T01:53:20.831Z,3.90
2023-05-12T01:58:25.456Z,4.10
2023-05-12T02:03:30.365Z,4.10
2023-05-12T02:08:34.359Z,3.90
2023-05-12T02:13:38.156Z,4.20
2023-05-12T02:18:42.465Z,4.30
2023-05-12T02:23:47.459Z,4.20
2023-05-12T02:28:51.781Z,3.90
2023-05-12T02:34:00.184Z,3.50
2023-05-12T02:39:04.179Z,4.40
2023-05-12T02:44:09.251Z,3.80
2023-05-12T02:49:13.388Z,3.90
2023-05-12T02:54:17.219Z,4.40
2023-05-12T02:59:23.758Z,4.40
2023-05-12T03:04:27.621Z,4.30
2023-05-12T03:09:31.377Z,4.60
2023-05-12T03:14:35.154Z,3.90
2023-05-12T03:19:39.111Z,4.30
2023-05-12T03:24:42.739Z,4.10
2023-05-12T03:29:46.459Z,4.10
2023-05-12T03:34:50.078Z,3.70
2023-05-12T03:39:56.351Z,4.10
2023-05-12T03:45:00.579Z,3.70
2023-05-12T03:50:04.633Z,4.30
2023-05-12T03:55:09.506Z,4.30
2023-05-12T04:00:14.003Z,4.40
2023-05-12T04:05:21.165Z,4.90
2023-05-12T04:10:24.905Z,4.40
2023-05-12T04:15:28.703Z,4.50
2023-05-12T04:20:32.558Z,4.80
2023-05-12T04:25:40.735Z,4.80
2023-05-12T04:30:44.627Z,4.70
2023-05-12T04:35:48.448Z,4.60
2023-05-12T04:40:53.733Z,4.70
2023-05-12T04:45:59.940Z,4.30
2023-05-12T04:51:07.164Z,4.60
2023-05-12T04:56:11.034Z,4.50
2023-05-12T05:01:16.586Z,4.60
2023-05-12T05:06:22.083Z,4.50
2023-05-12T05:11:28.477Z,4.70
2023-05-12T05:16:32.334Z,4.80
2023-05-12T05:21:36.317Z,4.90
2023-05-12T05:26:41.013Z,4.70
2023-05-12T05:31:45.184Z,4.30
2023-05-12T05:36:49.137Z,4.40
2023-05-12T05:41:53.086Z,4.60
2023-05-12T05:46:57.030Z,4.00
2023-05-12T05:52:02.804Z,3.70
2023-05-12T05:57:06.874Z,4.50
2023-05-12T06:02:11.261Z,3.90
2023-05-12T06:07:14.904Z,4.00
2023-05-12T06:12:19.398Z,3.80
2023-05-12T06:17:23.209Z,4.00
2023-05-12T06:22:26.928Z,4.10
2023-05-12T06:27:30.716Z,4.10
2023-05-12T06:32:34.525Z,4.10
2023-05-12T06:37:38.713Z,4.10
2023-05-12T06:42:42.329Z,4.00
2023-05-12T06:47:46.395Z,3.90
2023-05-12T06:52:50.827Z,3.70
2023-05-12T06:57:56.320Z,3.90
2023-05-12T07:03:00.116Z,3.80
2023-05-12T07:08:04.318Z,3.80
2023-05-12T07:13:08.144Z,3.80
2023-05-12T07:18:11.887Z,3.70
2023-05-12T07:23:16.994Z,4.00
2023-05-12T07:28:20.673Z,4.00
2023-05-12T07:33:24.377Z,3.80
2023-05-12T07:38:28.125Z,3.70
2023-05-12T07:43:31.754Z,3.60
2023-05-12T07:48:40.141Z,3.50
2023-05-12T07:53:43.996Z,3.30
2023-05-12T07:58:48.062Z,3.80
2023-05-12T08:03:52.042Z,3.40
2023-05-12T08:08:58.504Z,3.30
2023-05-12T08:14:02.404Z,3.90
2023-05-12T08:19:05.927Z,3.50
2023-05-12T08:24:09.843Z,3.00
2023-05-12T08:29:13.685Z,3.50
2023-05-12T08:34:17.459Z,2.90
2023-05-12T08:39:21.998Z,3.40
2023-05-12T08:44:26.064Z,3.70
2023-05-12T08:49:32.722Z,3.50
2023-05-12T08:54:48.656Z,3.00
2023-05-12T09:00:01.891Z,3.30
2023-05-12T09:05:06.024Z,2.80
2023-05-12T09:10:29.943Z,3.60
2023-05-12T09:15:46.250Z,3.60
2023-05-12T09:20:50.160Z,3.80
2023-05-12T09:26:05.678Z,3.00
2023-05-12T09:31:21.833Z,3.40
2023-05-12T09:36:26.262Z,2.70
2023-05-12T09:41:30.020Z,2.60
2023-05-12T09:46:34.201Z,2.80
2023-05-12T09:51:38.376Z,3.70
2023-05-12T09:56:44.769Z,2.50
2023-05-12T10:01:49.658Z,2.60
2023-05-12T10:06:54.250Z,2.40
2023-05-12T10:11:58.793Z,2.60
2023-05-12T10:17:03.177Z,2.70
2023-05-12T10:22:13.891Z,3.00
2023-05-12T10:27:18.569Z,2.30
2023-05-12T10:32:22.407Z,2.30
2023-05-12T10:37:29.596Z,2.10
2023-05-12T10:42:43.599Z,2.50
2023-05-12T10:52:55.742Z,2.50
2023-05-12T10:58:13.397Z,2.50
2023-05-12T11:03:25.531Z,2.20
2023-05-12T11:08:30.877Z,2.30
2023-05-12T11:13:36.126Z,2.20
2023-05-12T11:18:39.897Z,2.60
2023-05-12T11:23:43.761Z,2.40
2023-05-12T11:28:48.167Z,2.20
2023-05-12T11:34:11.983Z,2.30
2023-05-12T11:39:23.451Z,2.30
2023-05-12T11:44:27.156Z,2.40
2023-05-12T11:49:31.832Z,2.20
2023-05-12T11:54:36.113Z,2.30
2023-05-12T11:59:39.847Z,2.20
2023-05-12T12:04:43.865Z,2.10
2023-05-12T12:09:47.625Z,2.20
2023-05-12T12:14:51.343Z,2.50
2023-05-12T12:19:55.041Z,2.20
2023-05-12T12:24:58.933Z,2.30
2023-05-12T12:30:03.229Z,2.30
2023-05-12T12:35:07.690Z,2.00
2023-05-12T12:40:12.523Z,1.70
2023-05-12T12:45:16.977Z,2.10
2023-05-12T12:50:23.895Z,1.90
2023-05-12T12:55:28.992Z,1.60
2023-05-12T13:00:33.234Z,1.80
2023-05-12T13:05:37.145Z,1.70
2023-05-12T13:10:42.386Z,1.80
2023-05-12T13:15:46.262Z,1.70
2023-05-12T13:20:50.195Z,1.70
2023-05-12T13:25:54.124Z,2.00
2023-05-12T13:30:58.521Z,1.80
2023-05-12T13:36:02.321Z,1.60
2023-05-12T13:41:06.104Z,1.50
2023-05-12T13:46:09.974Z,2.40
2023-05-12T13:51:14.657Z,1.60
2023-05-12T13:56:18.552Z,1.80
2023-05-12T14:01:22.485Z,1.80
2023-05-12T14:06:27.558Z,1.60
2023-05-12T14:11:31.384Z,1.70
2023-05-12T14:16:35.495Z,1.70
2023-05-12T14:21:41.375Z,1.70
2023-05-12T14:26:45.208Z,2.00
2023-05-12T14:31:49.040Z,1.80
2023-05-12T14:36:52.955Z,2.00
2023-05-12T14:41:56.771Z,1.90
2023-05-12T14:47:01.233Z,1.90
2023-05-12T14:52:06.029Z,1.70
2023-05-12T14:57:10.894Z,1.70
2023-05-12T15:02:14.664Z,1.60
2023-05-12T15:07:18.363Z,1.70
2023-05-12T15:12:22.480Z,1.90
2023-05-12T15:17:27.741Z,1.80
2023-05-12T15:22:33.758Z,2.10
2023-05-12T15:27:37.791Z,2.30
2023-05-12T15:32:43.212Z,1.80
2023-05-12T15:37:47.141Z,2.00
2023-05-12T15:42:50.931Z,1.90
2023-05-12T15:47:54.926Z,2.10
2023-05-12T15:52:58.982Z,1.90
2023-05-12T15:58:03.930Z,2.20
2023-05-12T16:03:08.278Z,2.10
2023-05-12T16:08:14.472Z,2.40
2023-05-12T16:13:18.252Z,3.00
2023-05-12T16:18:22.113Z,2.70
2023-05-12T16:23:26.649Z,2.20
2023-05-12T16:28:32.381Z,2.40
2023-05-12T16:33:36.357Z,2.50
2023-05-12T16:38:40.229Z,2.00
2023-05-12T16:43:46.141Z,2.10
2023-05-12T16:48:51.190Z,1.90
2023-05-12T16:53:55.051Z,2.20
2023-05-12T16:59:00.604Z,2.30
2023-05-12T17:04:04.606Z,2.60
2023-05-12T17:09:08.703Z,2.40
2023-05-12T17:14:12.897Z,2.50
2023-05-12T17:19:16.604Z,2.40
2023-05-12T17:24:21.064Z,2.60
2023-05-12T17:29:24.785Z,2.60
2023-05-12T17:34:36.954Z,2.70
2023-05-12T17:39:42.784Z,2.80
2023-05-12T17:44:46.723Z,2.60
2023-05-12T17:49:52.861Z,2.90
2023-05-12T17:54:58.020Z,2.20
2023-05-12T18:00:10.250Z,2.10
2023-05-12T18:05:22.077Z,2.40
2023-05-12T18:10:26.245Z,2.60
2023-05-12T18:15:30.719Z,2.50
2023-05-12T18:20:37.749Z,2.40
2023-05-12T18:25:44.256Z,2.30
2023-05-12T18:30:48.145Z,2.40
2023-05-12T18:35:52.188Z,2.70
2023-05-12T18:40:56.848Z,3.00
2023-05-12T18:46:01.866Z,2.40
2023-05-12T18:51:06.438Z,2.60
2023-05-12T18:56:10.861Z,2.60
2023-05-12T19:01:15.161Z,3.40
2023-05-12T19:06:19.099Z,2.90
2023-05-12T19:11:23.267Z,3.00
2023-05-12T19:16:27.381Z,2.80
2023-05-12T19:21:33.139Z,3.10
2023-05-12T19:26:38.139Z,3.20
2023-05-12T19:31:42.508Z,3.40
2023-05-12T19:36:47.246Z,2.80
2023-05-12T19:41:52.252Z,3.40
2023-05-12T19:47:00.160Z,3.20
2023-05-12T19:52:06.136Z,3.50
2023-05-12T19:57:10.537Z,4.30
2023-05-12T20:02:19.836Z,3.60
2023-05-12T20:07:23.856Z,3.50
2023-05-12T20:12:28.027Z,2.90
2023-05-12T20:17:31.884Z,3.10
2023-05-12T20:22:35.649Z,3.30
2023-05-12T20:27:39.398Z,3.20
2023-05-12T20:32:44.235Z,2.90
2023-05-12T20:37:49.061Z,2.80
2023-05-12T20:42:53.185Z,2.90
2023-05-12T20:47:57.058Z,2.90
2023-05-12T20:53:01.356Z,3.10
2023-05-12T20:58:05.071Z,3.10
2023-05-12T21:03:14.741Z,3.40
2023-05-12T21:08:19.198Z,3.00
2023-05-12T21:13:23.045Z,4.30
2023-05-12T21:18:27.333Z,4.60
2023-05-12T21:23:31.442Z,5.20
2023-05-12T21:28:35.125Z,4.30
2023-05-12T21:33:39.662Z,4.10
2023-05-12T21:38:43.636Z,3.80
2023-05-12T21:43:50.229Z,3.70
2023-05-12T21:48:54.314Z,3.60
2023-05-12T21:53:58.818Z,3.70
2023-05-12T21:59:03.885Z,3.50
2023-05-12T22:04:08.046Z,3.70
2023-05-12T22:09:12.031Z,3.70
2023-05-12T22:14:16.605Z,3.70
2023-05-12T22:19:20.233Z,4.20
2023-05-12T22:24:24.218Z,3.80
2023-05-12T22:29:27.958Z,3.30
2023-05-12T22:34:31.697Z,3.90
2023-05-12T22:39:35.302Z,4.00
2023-05-12T22:44:39.478Z,3.80
2023-05-12T22:49:43.757Z,4.00
2023-05-12T22:54:47.451Z,4.30
2023-05-12T22:59:51.465Z,5.30
2023-05-12T23:04:55.900Z,5.70
2023-05-12T23:09:59.741Z,3.90
2023-05-12T23:15:05.477Z,4.60
2023-05-12T23:20:10.319Z,4.50
2023-05-12T23:25:14.045Z,4.50
2023-05-12T23:30:17.955Z,4.10
2023-05-12T23:35:21.627Z,4.50
2023-05-12T23:40:25.396Z,4.20
2023-05-12T23:45:29.199Z,5.00
2023-05-12T23:50:32.962Z,4.60
2023-05-12T23:55:37.782Z,4.60
